Time;durP1;ratioP1;P1;durP2;ratioP2;P2;SDS_P1;SDS_P2;PMS_P1;PMS_P2;Temp;Humidity;BMP_temperature;BMP_pressure;BME280_temperature;BME280_humidity;BME280_pressure;Samples;Min_cycle;Max_cycle;Signal;HPM_P1;HPM_P2
2022/10/22 00:01:55;;;;;;;;;;;10.80;99.90;;;;;;5026869;28;19913;-89
2022/10/22 00:04:21;;;;;;;;;;;10.80;99.90;;;;;;5028746;28;19913;-87
2022/10/22 00:06:46;;;;;;;;;;;10.80;99.90;;;;;;5030814;28;19925;-87
2022/10/22 00:09:12;;;;;;;;;;;10.80;99.90;;;;;;5016664;28;19916;-88
2022/10/22 00:11:39;;;;;;;;;;;10.80;99.90;;;;;;5024970;28;19936;-90
2022/10/22 00:14:05;;;;;;;;;;;10.80;99.90;;;;;;5028263;28;19924;-86
2022/10/22 00:16:31;;;;;;;;;;;10.80;99.90;;;;;;5038165;28;19905;-85
2022/10/22 00:18:57;;;;;;;;;;;10.80;99.90;;;;;;5053800;28;19928;-84
2022/10/22 00:21:23;;;;;;;;;;;10.80;99.90;;;;;;5037438;28;19901;-85
2022/10/22 00:23:48;;;;;;;;;;;10.80;99.90;;;;;;5037370;28;19901;-84
2022/10/22 00:26:14;;;;;;;;;;;10.80;99.90;;;;;;5049225;28;20078;-87
2022/10/22 00:28:40;;;;;;;;;;;10.80;99.90;;;;;;5032619;28;19916;-89
2022/10/22 00:31:06;;;;;;;;;;;10.70;99.90;;;;;;5030064;28;20424;-89
2022/10/22 00:33:38;;;;;;;;;;;10.70;99.90;;;;;;5009837;28;19971;-89
2022/10/22 00:36:03;;;;;;;;;;;10.70;99.90;;;;;;5027831;28;19901;-86
2022/10/22 00:38:29;;;;;;;;;;;10.60;99.90;;;;;;5040953;28;19910;-87
2022/10/22 00:40:55;;;;;;;;;;;10.60;99.90;;;;;;5040977;28;19906;-85
2022/10/22 00:43:20;;;;;;;;;;;10.60;99.90;;;;;;5040980;28;19897;-85
2022/10/22 00:45:46;;;;;;;;;;;10.60;99.90;;;;;;5022041;28;19947;-84
2022/10/22 00:48:15;;;;;;;;;;;10.60;99.90;;;;;;5044199;28;19909;-87
2022/10/22 00:50:46;;;;;;;;;;;10.50;99.90;;;;;;5026757;28;19996;-88
2022/10/22 00:53:13;;;;;;;;;;;10.50;99.90;;;;;;5027828;28;19987;-86
2022/10/22 00:55:40;;;;;;;;;;;10.50;99.90;;;;;;5028868;28;19924;-88
2022/10/22 00:58:07;;;;;;;;;;;10.40;99.90;;;;;;5027694;28;19949;-87
2022/10/22 01:00:32;;;;;;;;;;;10.40;99.90;;;;;;5037648;28;19898;-87
2022/10/22 01:02:58;;;;;;;;;;;10.40;99.90;;;;;;5023220;28;19905;-86
2022/10/22 01:05:29;;;;;;;;;;;10.40;99.90;;;;;;5023153;28;19973;-88
2022/10/22 01:07:55;;;;;;;;;;;10.40;99.90;;;;;;5039429;28;19902;-86
2022/10/22 01:10:24;;;;;;;;;;;10.30;99.90;;;;;;5035967;28;19936;-86
2022/10/22 01:13:05;;;;;;;;;;;10.30;99.90;;;;;;5028220;28;19925;-87
2022/10/22 01:15:36;;;;;;;;;;;10.30;99.90;;;;;;5028336;28;19913;-91
2022/10/22 01:18:09;;;;;;;;;;;10.30;99.90;;;;;;5025778;28;19920;-86
2022/10/22 01:20:53;;;;;;;;;;;10.30;99.90;;;;;;5042300;28;19985;-87
2022/10/22 01:23:25;;;;;;;;;;;10.30;99.90;;;;;;5028043;28;19980;-85
2022/10/22 01:26:02;;;;;;;;;;;10.30;99.90;;;;;;5039914;28;19929;-86
2022/10/22 01:28:51;;;;;;;;;;;10.30;99.90;;;;;;5029615;28;19949;-87
2022/10/22 01:31:19;;;;;;;;;;;10.30;99.90;;;;;;5028417;28;19914;-88
2022/10/22 01:33:46;;;;;;;;;;;10.30;99.90;;;;;;5026998;28;19905;-87
2022/10/22 01:36:12;;;;;;;;;;;10.30;99.90;;;;;;5054218;28;19902;-83
2022/10/22 01:38:40;;;;;;;;;;;10.30;99.90;;;;;;5056029;28;19917;-83
2022/10/22 01:41:09;;;;;;;;;;;10.20;99.90;;;;;;5039334;28;19901;-85
2022/10/22 01:43:35;;;;;;;;;;;10.30;99.90;;;;;;5036803;28;19937;-88
2022/10/22 01:46:03;;;;;;;;;;;10.30;99.90;;;;;;5039648;28;19925;-85
2022/10/22 01:48:29;;;;;;;;;;;10.30;99.90;;;;;;5039086;28;19945;-84
2022/10/22 01:51:14;;;;;;;;;;;10.30;99.90;;;;;;5038263;28;19906;-88
2022/10/22 01:53:48;;;;;;;;;;;10.30;99.90;;;;;;5021874;28;19930;-88
2022/10/22 01:56:14;;;;;;;;;;;10.30;99.90;;;;;;5039396;28;19989;-86
2022/10/22 01:58:55;;;;;;;;;;;10.20;99.90;;;;;;5032353;28;19910;-86
2022/10/22 02:01:29;;;;;;;;;;;10.20;99.90;;;;;;5027266;28;20008;-87
2022/10/22 02:04:00;;;;;;;;;;;10.20;99.90;;;;;;5027279;28;19913;-88
2022/10/22 02:06:27;;;;;;;;;;;10.10;99.90;;;;;;5026712;28;20016;-86
2022/10/22 02:08:53;;;;;;;;;;;10.10;99.90;;;;;;5009541;28;20421;-90
2022/10/22 02:11:19;;;;;;;;;;;10.10;99.90;;;;;;5028282;28;19909;-87
2022/10/22 02:13:47;;;;;;;;;;;10.10;99.90;;;;;;5010768;28;20389;-88
2022/10/22 02:16:15;;;;;;;;;;;10.00;99.90;;;;;;5053802;28;19917;-86
2022/10/22 02:18:44;;;;;;;;;;;10.00;99.90;;;;;;5054691;28;19917;-86
2022/10/22 02:21:09;;;;;;;;;;;9.90;99.90;;;;;;5026265;28;19972;-85
2022/10/22 02:23:35;;;;;;;;;;;9.90;99.90;;;;;;5022921;28;19913;-85
2022/10/22 02:26:05;;;;;;;;;;;9.90;99.90;;;;;;5038655;28;19913;-84
2022/10/22 02:28:34;;;;;;;;;;;9.90;99.90;;;;;;5020463;28;19913;-86
2022/10/22 02:31:05;;;;;;;;;;;9.90;99.90;;;;;;5003463;28;20297;-86
2022/10/22 02:33:33;;;;;;;;;;;9.90;99.90;;;;;;5020982;28;19973;-87
2022/10/22 02:35:59;;;;;;;;;;;10.00;99.90;;;;;;5029713;28;20024;-86
2022/10/22 02:38:25;;;;;;;;;;;10.00;99.90;;;;;;5030462;28;19936;-85
2022/10/22 02:40:51;;;;;;;;;;;9.90;99.90;;;;;;5037621;28;19952;-85
2022/10/22 02:43:17;;;;;;;;;;;9.90;99.90;;;;;;5022099;28;19901;-86
2022/10/22 02:45:43;;;;;;;;;;;9.90;99.90;;;;;;5022801;28;20008;-89
2022/10/22 02:48:09;;;;;;;;;;;10.00;99.90;;;;;;5024319;28;19956;-87
2022/10/22 02:50:35;;;;;;;;;;;10.00;99.90;;;;;;5006157;28;19909;-86
2022/10/22 02:53:01;;;;;;;;;;;9.90;99.90;;;;;;5025507;28;19913;-90
2022/10/22 02:55:26;;;;;;;;;;;9.90;99.90;;;;;;5012474;28;19917;-87
2022/10/22 02:57:52;;;;;;;;;;;9.90;99.90;;;;;;5027240;28;20004;-88
2022/10/22 03:00:18;;;;;;;;;;;9.90;99.90;;;;;;5028865;28;19909;-88
2022/10/22 03:02:44;;;;;;;;;;;9.90;99.90;;;;;;5014221;28;19902;-88
2022/10/22 03:05:09;;;;;;;;;;;9.80;99.90;;;;;;5047031;28;19913;-88
2022/10/22 03:07:35;;;;;;;;;;;9.80;99.90;;;;;;5030878;28;19913;-87
2022/10/22 03:10:01;;;;;;;;;;;9.80;99.90;;;;;;5027643;28;19909;-89
2022/10/22 03:12:27;;;;;;;;;;;9.80;99.90;;;;;;5024267;28;19968;-89
2022/10/22 03:14:52;;;;;;;;;;;9.70;99.90;;;;;;5025791;28;19914;-89
2022/10/22 03:17:18;;;;;;;;;;;9.80;99.90;;;;;;5025628;28;19914;-89
2022/10/22 03:19:44;;;;;;;;;;;9.80;99.90;;;;;;5023934;28;19940;-88
2022/10/22 03:22:12;;;;;;;;;;;9.70;99.90;;;;;;5010401;28;19913;-88
2022/10/22 03:24:40;;;;;;;;;;;9.80;99.90;;;;;;5019240;28;19937;-84
2022/10/22 03:27:08;;;;;;;;;;;9.70;99.90;;;;;;5054296;28;19947;-85
2022/10/22 03:29:39;;;;;;;;;;;9.70;99.90;;;;;;5054403;28;19904;-85
2022/10/22 03:32:05;;;;;;;;;;;9.80;99.90;;;;;;5038734;28;19905;-84
2022/10/22 03:34:31;;;;;;;;;;;9.80;99.90;;;;;;5038048;28;19909;-85
2022/10/22 03:37:01;;;;;;;;;;;9.80;99.90;;;;;;5037952;28;19917;-86
2022/10/22 03:39:28;;;;;;;;;;;9.80;99.90;;;;;;5038369;28;19901;-84
2022/10/22 03:41:54;;;;;;;;;;;9.80;99.90;;;;;;5026881;28;19969;-88
2022/10/22 03:44:23;;;;;;;;;;;9.80;99.90;;;;;;5008041;28;19909;-88
2022/10/22 03:46:48;;;;;;;;;;;9.70;99.90;;;;;;5008226;28;19913;-89
2022/10/22 03:49:17;;;;;;;;;;;9.70;99.90;;;;;;5006849;28;20061;-89
2022/10/22 03:51:43;;;;;;;;;;;9.70;99.90;;;;;;5024943;28;19913;-87
2022/10/22 03:54:09;;;;;;;;;;;9.70;99.90;;;;;;5024010;28;20278;-88
2022/10/22 03:56:35;;;;;;;;;;;9.60;99.90;;;;;;5035313;28;20389;-84
2022/10/22 03:59:00;;;;;;;;;;;9.60;99.90;;;;;;5038213;28;19898;-84
2022/10/22 04:01:26;;;;;;;;;;;9.60;99.90;;;;;;5054062;28;19902;-84
2022/10/22 04:03:53;;;;;;;;;;;9.50;99.90;;;;;;5021470;28;19898;-84
2022/10/22 04:06:19;;;;;;;;;;;9.50;99.90;;;;;;5037753;28;19925;-84
2022/10/22 04:08:45;;;;;;;;;;;9.50;99.90;;;;;;5037442;28;19898;-85
2022/10/22 04:11:11;;;;;;;;;;;9.40;99.90;;;;;;5059576;23;19922;-79
2022/10/22 04:13:37;;;;;;;;;;;9.40;99.90;;;;;;5031594;28;19917;-79
2022/10/22 04:16:17;;;;;;;;;;;9.40;99.90;;;;;;5031337;28;19921;-79
2022/10/22 04:18:43;;;;;;;;;;;9.40;99.90;;;;;;5033881;28;19964;-78
2022/10/22 04:21:10;;;;;;;;;;;9.30;99.90;;;;;;5037801;28;19953;-78
2022/10/22 04:23:35;;;;;;;;;;;9.40;99.90;;;;;;5037333;28;19908;-78
2022/10/22 04:26:03;;;;;;;;;;;9.30;99.90;;;;;;5038194;28;20336;-78
2022/10/22 04:28:28;;;;;;;;;;;9.30;99.90;;;;;;5038883;28;19913;-78
2022/10/22 04:30:54;;;;;;;;;;;9.40;99.90;;;;;;5037826;28;19914;-79
2022/10/22 04:33:20;;;;;;;;;;;9.40;99.90;;;;;;5036092;28;19959;-79
2022/10/22 04:35:46;;;;;;;;;;;9.40;99.90;;;;;;5036204;28;19905;-78
2022/10/22 04:38:11;;;;;;;;;;;9.40;99.90;;;;;;5037474;28;19912;-78
2022/10/22 04:40:37;;;;;;;;;;;9.40;99.90;;;;;;5038632;28;19893;-79
2022/10/22 04:43:03;;;;;;;;;;;9.50;99.90;;;;;;5038536;28;19972;-78
2022/10/22 04:45:28;;;;;;;;;;;9.50;99.90;;;;;;5038726;28;19919;-78
2022/10/22 04:47:54;;;;;;;;;;;9.60;99.90;;;;;;5037323;28;19918;-78
2022/10/22 04:50:20;;;;;;;;;;;9.50;99.90;;;;;;5036555;28;19910;-79
2022/10/22 04:52:45;;;;;;;;;;;9.50;99.90;;;;;;5038171;28;19913;-80
2022/10/22 04:55:11;;;;;;;;;;;9.60;99.90;;;;;;5038889;28;19913;-80
2022/10/22 04:57:36;;;;;;;;;;;9.60;99.90;;;;;;5039160;28;19898;-77
2022/10/22 05:00:03;;;;;;;;;;;9.60;99.90;;;;;;5038222;28;20233;-80
2022/10/22 05:02:29;;;;;;;;;;;9.60;99.90;;;;;;5034437;28;19950;-78
2022/10/22 05:04:55;;;;;;;;;;;9.60;99.90;;;;;;5038606;28;19909;-80
2022/10/22 05:07:20;;;;;;;;;;;9.60;99.90;;;;;;5038710;28;19921;-77
2022/10/22 05:09:46;;;;;;;;;;;9.70;99.90;;;;;;5039382;28;19901;-79
2022/10/22 05:12:12;;;;;;;;;;;9.60;99.90;;;;;;5038699;28;19910;-78
2022/10/22 05:14:37;;;;;;;;;;;9.70;99.90;;;;;;5039130;28;19939;-79
2022/10/22 05:17:03;;;;;;;;;;;9.70;99.90;;;;;;5039513;28;19981;-78
2022/10/22 05:19:29;;;;;;;;;;;9.70;99.90;;;;;;5039429;28;19945;-78
2022/10/22 05:21:58;;;;;;;;;;;9.60;99.90;;;;;;5037749;28;19928;-77
2022/10/22 05:24:24;;;;;;;;;;;9.70;99.90;;;;;;5038459;28;19976;-80
2022/10/22 05:26:50;;;;;;;;;;;9.80;99.90;;;;;;5039678;28;19918;-80
2022/10/22 05:29:16;;;;;;;;;;;9.80;99.90;;;;;;5038333;28;19959;-79
2022/10/22 05:31:42;;;;;;;;;;;9.80;99.90;;;;;;5037766;28;19914;-78
2022/10/22 05:34:07;;;;;;;;;;;9.80;99.90;;;;;;5037490;28;19948;-79
2022/10/22 05:36:33;;;;;;;;;;;9.80;99.90;;;;;;5039236;28;19902;-79
2022/10/22 05:38:59;;;;;;;;;;;9.80;99.90;;;;;;5037539;28;19921;-79
2022/10/22 05:41:25;;;;;;;;;;;9.70;99.90;;;;;;5039532;28;20079;-79
2022/10/22 05:43:53;;;;;;;;;;;9.80;99.90;;;;;;5038469;28;19913;-79
2022/10/22 05:46:19;;;;;;;;;;;9.80;99.90;;;;;;5038706;28;19901;-79
2022/10/22 05:48:52;;;;;;;;;;;9.90;99.90;;;;;;5038927;28;19902;-77
2022/10/22 05:51:18;;;;;;;;;;;9.90;99.90;;;;;;5038567;28;19905;-77
2022/10/22 05:53:44;;;;;;;;;;;10.00;99.90;;;;;;5037945;28;19922;-79
2022/10/22 05:56:14;;;;;;;;;;;10.10;99.90;;;;;;5036522;28;19913;-78
2022/10/22 05:58:40;;;;;;;;;;;10.10;99.90;;;;;;5036461;28;19897;-78
2022/10/22 06:01:07;;;;;;;;;;;10.20;99.90;;;;;;5038548;28;19917;-80
2022/10/22 06:03:33;;;;;;;;;;;10.20;99.90;;;;;;5038762;28;19902;-78
2022/10/22 06:06:00;;;;;;;;;;;10.20;99.90;;;;;;5036578;28;19921;-80
2022/10/22 06:08:26;;;;;;;;;;;10.30;99.90;;;;;;5036964;28;19914;-81
2022/10/22 06:10:52;;;;;;;;;;;10.40;99.90;;;;;;5034591;28;19920;-79
2022/10/22 06:13:18;;;;;;;;;;;10.40;99.90;;;;;;5048845;28;19913;-82
2022/10/22 06:15:43;;;;;;;;;;;10.50;99.90;;;;;;5048644;28;20304;-80
2022/10/22 06:18:10;;;;;;;;;;;10.50;99.90;;;;;;5046169;28;19916;-80
2022/10/22 06:20:35;;;;;;;;;;;10.50;99.90;;;;;;5012153;28;19935;-81
2022/10/22 06:23:01;;;;;;;;;;;10.60;99.90;;;;;;5044034;28;19967;-81
2022/10/22 06:25:28;;;;;;;;;;;10.60;99.90;;;;;;5044305;28;19913;-81
2022/10/22 06:27:53;;;;;;;;;;;10.70;99.90;;;;;;5044464;28;19909;-81
2022/10/22 06:30:19;;;;;;;;;;;10.70;99.90;;;;;;5045684;28;19959;-80
2022/10/22 06:32:45;;;;;;;;;;;10.80;99.90;;;;;;5044172;28;20328;-79
2022/10/22 06:35:10;;;;;;;;;;;11.00;99.90;;;;;;5053907;28;19908;-79
2022/10/22 06:37:36;;;;;;;;;;;11.10;99.90;;;;;;5058144;28;19901;-79
2022/10/22 06:40:02;;;;;;;;;;;11.30;99.90;;;;;;5056986;28;19928;-79
2022/10/22 06:42:27;;;;;;;;;;;11.60;99.90;;;;;;5050287;28;19909;-79
2022/10/22 06:44:53;;;;;;;;;;;11.80;99.90;;;;;;5050245;28;19913;-79
2022/10/22 06:47:19;;;;;;;;;;;12.00;99.90;;;;;;5033682;28;19999;-80
2022/10/22 06:49:44;;;;;;;;;;;12.20;99.90;;;;;;5033638;28;19924;-78
2022/10/22 06:52:11;;;;;;;;;;;12.50;99.90;;;;;;5050441;28;19941;-79
2022/10/22 06:54:36;;;;;;;;;;;12.70;99.90;;;;;;5050335;28;19917;-79
2022/10/22 06:57:02;;;;;;;;;;;12.80;99.90;;;;;;5032873;28;20490;-78
2022/10/22 06:59:28;;;;;;;;;;;13.00;99.90;;;;;;5037552;28;19988;-80
2022/10/22 07:01:53;;;;;;;;;;;13.20;99.90;;;;;;5036319;28;19968;-79
2022/10/22 07:04:19;;;;;;;;;;;13.10;99.90;;;;;;5037038;28;19913;-79
2022/10/22 07:06:45;;;;;;;;;;;13.10;99.90;;;;;;5054454;28;19909;-81
2022/10/22 07:09:10;;;;;;;;;;;13.20;99.90;;;;;;5051781;28;19913;-80
2022/10/22 07:11:38;;;;;;;;;;;13.10;99.90;;;;;;5052709;28;19984;-80
2022/10/22 07:14:04;;;;;;;;;;;13.10;99.90;;;;;;5051787;28;19920;-79
2022/10/22 07:16:29;;;;;;;;;;;13.10;99.90;;;;;;5053882;28;19909;-80
2022/10/22 07:18:56;;;;;;;;;;;13.10;99.90;;;;;;5051821;28;19924;-79
2022/10/22 07:21:22;;;;;;;;;;;13.10;99.90;;;;;;5033351;28;19909;-79
2022/10/22 07:23:48;;;;;;;;;;;13.10;99.90;;;;;;5034148;28;19936;-78
2022/10/22 07:26:14;;;;;;;;;;;13.10;99.90;;;;;;5052048;28;19941;-78
2022/10/22 07:28:40;;;;;;;;;;;12.90;99.90;;;;;;5050750;28;19913;-80
2022/10/22 07:31:07;;;;;;;;;;;12.80;99.90;;;;;;5051343;28;19944;-78
2022/10/22 07:33:33;;;;;;;;;;;12.80;99.90;;;;;;5049615;28;19923;-81
2022/10/22 07:35:59;;;;;;;;;;;12.90;99.90;;;;;;5046013;28;20405;-81
2022/10/22 07:38:25;;;;;;;;;;;13.00;99.90;;;;;;5047804;28;19913;-82
2022/10/22 07:40:51;;;;;;;;;;;13.10;99.90;;;;;;5046137;28;19909;-82
2022/10/22 07:43:17;;;;;;;;;;;13.20;99.90;;;;;;5044591;28;19936;-81
2022/10/22 07:45:42;;;;;;;;;;;13.30;99.90;;;;;;5046213;28;19909;-80
2022/10/22 07:48:08;;;;;;;;;;;13.50;99.90;;;;;;5032848;28;19911;-80
2022/10/22 07:50:33;;;;;;;;;;;13.60;99.90;;;;;;5052537;28;19913;-80
2022/10/22 07:52:59;;;;;;;;;;;13.70;99.90;;;;;;5051427;28;19941;-82
2022/10/22 07:55:25;;;;;;;;;;;13.80;99.90;;;;;;5048652;28;19909;-80
2022/10/22 07:57:50;;;;;;;;;;;13.70;99.90;;;;;;5043551;28;19967;-81
2022/10/22 08:00:16;;;;;;;;;;;13.60;99.90;;;;;;5041769;28;19909;-79
2022/10/22 08:02:44;;;;;;;;;;;13.50;99.90;;;;;;5041676;28;19924;-78
2022/10/22 08:05:12;;;;;;;;;;;13.40;99.90;;;;;;5041083;28;19909;-81
2022/10/22 08:07:38;;;;;;;;;;;13.30;99.90;;;;;;5024006;28;20019;-78
2022/10/22 08:10:04;;;;;;;;;;;13.30;99.90;;;;;;5022316;28;19924;-80
2022/10/22 08:12:30;;;;;;;;;;;13.20;99.90;;;;;;5040450;28;19916;-78
2022/10/22 08:14:56;;;;;;;;;;;13.30;99.90;;;;;;5039975;28;19920;-81
2022/10/22 08:17:21;;;;;;;;;;;13.30;99.90;;;;;;5039417;28;20284;-80
2022/10/22 08:19:47;;;;;;;;;;;13.40;99.90;;;;;;5039764;28;19932;-81
2022/10/22 08:22:13;;;;;;;;;;;13.60;99.90;;;;;;5023410;28;20289;-79
2022/10/22 08:24:39;;;;;;;;;;;13.70;99.90;;;;;;5043549;28;19909;-80
2022/10/22 08:27:04;;;;;;;;;;;13.80;99.90;;;;;;5045101;28;20020;-79
2022/10/22 08:29:30;;;;;;;;;;;13.70;99.90;;;;;;5043166;28;20008;-82
2022/10/22 08:31:56;;;;;;;;;;;13.80;99.90;;;;;;5041415;28;19913;-80
2022/10/22 08:34:21;;;;;;;;;;;13.80;99.90;;;;;;5044143;28;19913;-80
2022/10/22 08:36:47;;;;;;;;;;;13.80;99.90;;;;;;5043772;28;19944;-79
2022/10/22 08:39:13;;;;;;;;;;;13.70;99.90;;;;;;5045728;28;20308;-78
2022/10/22 08:41:48;;;;;;;;;;;13.70;99.90;;;;;;5043835;28;19960;-82
2022/10/22 08:44:29;;;;;;;;;;;13.50;99.90;;;;;;5043525;28;20011;-80
2022/10/22 08:47:18;;;;;;;;;;;13.50;99.90;;;;;;5043950;28;20013;-81
2022/10/22 08:49:43;;;;;;;;;;;13.40;99.90;;;;;;5043031;28;19913;-80
2022/10/22 08:52:12;;;;;;;;;;;13.30;99.90;;;;;;5042878;28;19910;-80
2022/10/22 08:54:38;;;;;;;;;;;13.20;99.90;;;;;;5044470;28;19917;-81
2022/10/22 08:57:07;;;;;;;;;;;13.20;99.90;;;;;;5045727;28;19920;-79
2022/10/22 08:59:51;;;;;;;;;;;13.10;99.90;;;;;;5048716;28;19951;-81
2022/10/22 09:02:33;;;;;;;;;;;13.10;99.90;;;;;;5010875;28;19913;-80
2022/10/22 09:05:23;;;;;;;;;;;13.00;99.90;;;;;;5044243;28;19914;-81
2022/10/22 09:07:49;;;;;;;;;;;13.10;99.90;;;;;;5036445;28;19932;-80
2022/10/22 09:10:16;;;;;;;;;;;13.00;99.90;;;;;;5030347;28;19913;-80
2022/10/22 09:12:43;;;;;;;;;;;13.00;99.90;;;;;;5047174;28;19917;-81
2022/10/22 09:15:13;;;;;;;;;;;12.90;99.90;;;;;;5028375;28;19980;-80
2022/10/22 09:17:58;;;;;;;;;;;12.80;99.90;;;;;;5046957;28;19948;-79
2022/10/22 09:20:47;;;;;;;;;;;12.70;99.90;;;;;;5058638;28;19984;-79
2022/10/22 09:23:13;;;;;;;;;;;12.50;99.90;;;;;;5034151;28;19909;-79
2022/10/22 09:25:39;;;;;;;;;;;12.40;99.90;;;;;;5058518;28;19913;-80
2022/10/22 09:28:05;;;;;;;;;;;12.30;99.90;;;;;;5053776;28;20008;-80
2022/10/22 09:30:33;;;;;;;;;;;12.20;99.90;;;;;;5037470;28;19909;-79
2022/10/22 09:33:00;;;;;;;;;;;12.20;99.90;;;;;;5052976;28;19917;-80
2022/10/22 09:35:27;;;;;;;;;;;12.20;99.90;;;;;;5037742;28;19969;-81
2022/10/22 09:37:54;;;;;;;;;;;12.20;99.90;;;;;;5053238;28;19913;-79
2022/10/22 09:40:19;;;;;;;;;;;12.20;99.90;;;;;;5049323;28;19917;-81
2022/10/22 09:42:45;;;;;;;;;;;12.20;99.90;;;;;;5027981;28;20466;-81
2022/10/22 09:45:16;;;;;;;;;;;12.20;99.90;;;;;;5045294;28;19909;-82
2022/10/22 09:47:42;;;;;;;;;;;12.30;99.90;;;;;;5050632;28;19988;-80
2022/10/22 09:50:16;;;;;;;;;;;12.30;99.90;;;;;;5031588;28;19910;-80
2022/10/22 09:52:43;;;;;;;;;;;12.30;99.90;;;;;;5044278;28;19988;-80
2022/10/22 09:55:13;;;;;;;;;;;12.30;99.90;;;;;;5041415;28;19917;-79
2022/10/22 09:57:39;;;;;;;;;;;12.30;99.90;;;;;;5042150;28;20405;-80
2022/10/22 10:00:07;;;;;;;;;;;12.30;99.90;;;;;;5042290;28;19924;-81
2022/10/22 10:02:38;;;;;;;;;;;12.30;99.90;;;;;;5042627;28;19917;-80
2022/10/22 10:05:05;;;;;;;;;;;12.30;99.90;;;;;;5042921;28;19914;-81
2022/10/22 10:07:31;;;;;;;;;;;12.30;99.90;;;;;;5042548;28;20035;-78
2022/10/22 10:09:57;;;;;;;;;;;12.20;99.90;;;;;;5039565;28;19963;-80
2022/10/22 10:12:35;;;;;;;;;;;12.20;99.90;;;;;;5068881;22;20416;-89
2022/10/22 10:15:32;;;;;;;;;;;12.20;99.90;;;;;;5036296;28;19925;-88
2022/10/22 10:18:33;;;;;;;;;;;12.20;99.90;;;;;;5021343;28;19913;-87
2022/10/22 10:21:43;;;;;;;;;;;12.30;99.90;;;;;;5038920;28;19924;-86
2022/10/22 10:24:40;;;;;;;;;;;12.40;99.90;;;;;;5045934;28;19974;-87
2022/10/22 10:27:54;;;;;;;;;;;12.50;99.90;;;;;;5064173;28;19936;-86
2022/10/22 10:30:42;;;;;;;;;;;12.50;99.90;;;;;;5044339;28;19927;-87
2022/10/22 10:33:52;;;;;;;;;;;;;;;;;;;;;
2022/10/22 10:36:50;;;;;;;;;;;12.70;99.90;;;;;;5018406;28;19944;-87
2022/10/22 10:39:36;;;;;;;;;;;12.90;99.90;;;;;;5042014;28;19913;-88
2022/10/22 10:42:37;;;;;;;;;;;12.90;99.90;;;;;;5056809;28;19944;-87
2022/10/22 10:48:57;;;;;;;;;;;12.70;99.90;;;;;;4978790;28;19922;-86
2022/10/22 10:51:35;;;;;;;;;;;12.70;99.90;;;;;;5044854;28;19921;-87
2022/10/22 10:54:50;;;;;;;;;;;12.80;99.90;;;;;;5053169;28;19932;-88
2022/10/22 11:01:26;;;;;;;;;;;13.00;99.90;;;;;;5047750;28;19919;-88
2022/10/22 11:04:04;;;;;;;;;;;13.00;99.90;;;;;;5044938;28;20017;-86
2022/10/22 11:06:58;;;;;;;;;;;13.00;99.90;;;;;;5045103;28;19920;-85
2022/10/22 11:10:26;;;;;;;;;;;13.10;99.90;;;;;;5062639;28;20003;-87
2022/10/22 11:13:40;;;;;;;;;;;13.30;99.90;;;;;;4978783;28;19910;-86
2022/10/22 11:16:53;;;;;;;;;;;13.50;99.90;;;;;;4946737;29;19926;-86
2022/10/22 11:19:58;;;;;;;;;;;13.70;99.90;;;;;;4947342;28;19906;-86
2022/10/22 11:22:30;;;;;;;;;;;13.90;99.90;;;;;;4926861;29;19934;-86
2022/10/22 11:25:05;;;;;;;;;;;14.00;99.90;;;;;;4928018;29;19907;-86
2022/10/22 11:27:54;;;;;;;;;;;14.10;99.90;;;;;;4997006;28;20020;-86
2022/10/22 11:30:35;;;;;;;;;;;14.00;99.90;;;;;;5046281;28;19918;-87
2022/10/22 11:37:01;;;;;;;;;;;14.50;99.90;;;;;;5024445;28;20231;-87
2022/10/22 11:39:52;;;;;;;;;;;14.60;99.90;;;;;;5026870;28;19945;-87
2022/10/22 11:49:56;;;;;;;;;;;;;;;;;;;;;
2022/10/22 11:53:14;;;;;;;;;;;14.40;99.90;;;;;;5014290;23;19933;-90
2022/10/22 11:56:26;;;;;;;;;;;14.30;99.90;;;;;;5037394;28;19916;-86
2022/10/22 11:59:58;;;;;;;;;;;14.30;99.90;;;;;;5035847;28;19978;-87
2022/10/22 12:03:15;;;;;;;;;;;14.20;99.90;;;;;;5047570;28;19924;-88
2022/10/22 12:06:33;;;;;;;;;;;14.20;99.90;;;;;;5053592;28;19989;-89
2022/10/22 12:09:17;;;;;;;;;;;14.20;99.90;;;;;;5045630;23;19925;-81
2022/10/22 12:11:48;;;;;;;;;;;14.10;99.90;;;;;;5023749;28;19945;-81
2022/10/22 12:14:28;;;;;;;;;;;14.00;99.90;;;;;;5027373;28;19917;-80
2022/10/22 12:16:54;;;;;;;;;;;13.90;99.90;;;;;;5027944;28;19917;-80
2022/10/22 12:19:46;;;;;;;;;;;13.90;99.90;;;;;;5043811;28;19916;-81
2022/10/22 12:22:13;;;;;;;;;;;13.90;99.90;;;;;;5036672;28;20293;-81
2022/10/22 12:24:41;;;;;;;;;;;13.90;99.90;;;;;;5043701;28;19920;-81
2022/10/22 12:27:16;;;;;;;;;;;13.90;99.90;;;;;;5040987;28;19917;-82
2022/10/22 12:29:42;;;;;;;;;;;14.00;99.90;;;;;;5039675;28;19917;-80
2022/10/22 12:32:11;;;;;;;;;;;14.00;99.90;;;;;;5043031;28;20442;-83
2022/10/22 12:34:43;;;;;;;;;;;14.10;99.90;;;;;;5044440;28;20328;-81
2022/10/22 12:37:09;;;;;;;;;;;14.10;99.90;;;;;;5045559;28;20008;-81
2022/10/22 12:39:35;;;;;;;;;;;14.20;99.90;;;;;;5050339;28;19979;-79
2022/10/22 12:42:03;;;;;;;;;;;14.30;99.90;;;;;;5051979;28;19947;-80
2022/10/22 12:44:31;;;;;;;;;;;14.40;99.90;;;;;;5049088;28;19916;-82
2022/10/22 12:46:57;;;;;;;;;;;14.40;99.90;;;;;;5045405;28;19945;-82
2022/10/22 12:49:27;;;;;;;;;;;14.50;99.90;;;;;;5045914;28;19909;-81
2022/10/22 12:51:53;;;;;;;;;;;14.50;99.90;;;;;;5049458;28;19913;-80
2022/10/22 12:54:23;;;;;;;;;;;14.60;99.90;;;;;;5045087;28;19920;-80
2022/10/22 12:56:49;;;;;;;;;;;14.70;99.90;;;;;;5043074;28;19913;-82
2022/10/22 12:59:14;;;;;;;;;;;14.80;99.90;;;;;;5042673;28;19940;-81
2022/10/22 13:01:41;;;;;;;;;;;15.00;99.90;;;;;;5045367;28;19935;-81
2022/10/22 13:04:16;;;;;;;;;;;15.10;99.90;;;;;;5045835;28;19964;-82
2022/10/22 13:06:49;;;;;;;;;;;15.30;99.90;;;;;;5044691;28;20284;-80
2022/10/22 13:09:24;;;;;;;;;;;15.50;99.90;;;;;;5045051;28;19921;-81
2022/10/22 13:11:50;;;;;;;;;;;15.50;99.90;;;;;;5045991;28;19920;-81
2022/10/22 13:14:25;;;;;;;;;;;15.50;99.90;;;;;;5046058;28;19913;-80
2022/10/22 13:17:04;;;;;;;;;;;15.50;99.90;;;;;;5045771;28;19944;-81
2022/10/22 13:19:35;;;;;;;;;;;15.50;99.90;;;;;;5045372;28;20389;-80
2022/10/22 13:22:01;;;;;;;;;;;15.50;99.90;;;;;;5048007;28;19955;-82
2022/10/22 13:24:28;;;;;;;;;;;15.40;99.90;;;;;;5049847;28;19909;-79
2022/10/22 13:26:54;;;;;;;;;;;15.50;99.90;;;;;;5049922;28;19921;-80
2022/10/22 13:29:21;;;;;;;;;;;15.50;99.90;;;;;;5066646;28;19893;-79
2022/10/22 13:31:48;;;;;;;;;;;15.40;99.90;;;;;;5048996;28;19936;-79
2022/10/22 13:34:16;;;;;;;;;;;15.40;99.90;;;;;;5048491;28;19920;-81
2022/10/22 13:36:41;;;;;;;;;;;15.30;99.90;;;;;;5052286;28;19913;-81
2022/10/22 13:39:12;;;;;;;;;;;15.30;99.90;;;;;;5066738;28;19916;-81
2022/10/22 13:41:38;;;;;;;;;;;15.20;99.90;;;;;;5053356;28;19913;-81
2022/10/22 13:44:03;;;;;;;;;;;15.20;99.90;;;;;;5052967;28;19932;-81
2022/10/22 13:46:30;;;;;;;;;;;15.10;99.90;;;;;;5052233;28;19912;-79
2022/10/22 13:48:57;;;;;;;;;;;15.10;99.90;;;;;;5053172;28;19974;-83
2022/10/22 13:51:26;;;;;;;;;;;15.00;99.90;;;;;;5054418;28;19917;-82
2022/10/22 13:53:52;;;;;;;;;;;15.00;99.90;;;;;;5051301;28;19981;-81
2022/10/22 13:56:19;;;;;;;;;;;15.20;99.90;;;;;;5049864;28;19921;-80
2022/10/22 13:58:45;;;;;;;;;;;15.30;99.90;;;;;;5050806;28;19913;-81
2022/10/22 14:01:19;;;;;;;;;;;15.30;99.90;;;;;;5051045;28;19984;-81
2022/10/22 14:03:45;;;;;;;;;;;15.30;99.90;;;;;;5052657;28;19923;-80
2022/10/22 14:06:12;;;;;;;;;;;15.40;99.90;;;;;;5043898;28;19909;-81
2022/10/22 14:08:38;;;;;;;;;;;15.50;99.90;;;;;;5043215;28;19937;-81
2022/10/22 14:11:03;;;;;;;;;;;15.50;99.90;;;;;;5044029;28;19916;-81
2022/10/22 14:13:29;;;;;;;;;;;15.60;99.90;;;;;;5046693;28;19924;-80
2022/10/22 14:15:56;;;;;;;;;;;15.50;99.90;;;;;;5049705;28;19977;-81
2022/10/22 14:18:25;;;;;;;;;;;15.50;99.90;;;;;;5048392;28;19928;-81
2022/10/22 14:20:52;;;;;;;;;;;15.50;99.90;;;;;;5048162;28;20373;-81
2022/10/22 14:23:19;;;;;;;;;;;15.50;99.90;;;;;;5042895;28;19999;-80
2022/10/22 14:25:45;;;;;;;;;;;15.40;99.90;;;;;;5042827;28;19967;-80
2022/10/22 14:28:11;;;;;;;;;;;15.30;99.90;;;;;;5042838;28;19917;-81
2022/10/22 14:30:37;;;;;;;;;;;15.30;99.90;;;;;;5043861;28;19964;-81
2022/10/22 14:33:09;;;;;;;;;;;15.20;99.90;;;;;;5053049;28;19935;-81
2022/10/22 14:35:34;;;;;;;;;;;15.10;99.90;;;;;;5049508;28;19929;-81
2022/10/22 14:38:00;;;;;;;;;;;14.90;99.90;;;;;;5057282;28;19943;-81
2022/10/22 14:40:26;;;;;;;;;;;14.80;99.90;;;;;;5057647;28;19905;-81
2022/10/22 14:42:51;;;;;;;;;;;14.80;99.90;;;;;;5046437;28;19909;-82
2022/10/22 14:45:17;;;;;;;;;;;14.80;99.90;;;;;;5044099;28;19913;-81
2022/10/22 14:47:43;;;;;;;;;;;14.80;99.90;;;;;;5042595;28;19910;-81
2022/10/22 14:50:09;;;;;;;;;;;14.70;99.90;;;;;;5040869;28;19913;-80
2022/10/22 14:52:35;;;;;;;;;;;14.70;99.90;;;;;;5042869;28;19964;-80
2022/10/22 14:55:00;;;;;;;;;;;14.60;99.90;;;;;;5043159;28;19917;-82
2022/10/22 14:57:26;;;;;;;;;;;14.60;99.90;;;;;;5042149;28;20000;-80
2022/10/22 14:59:53;;;;;;;;;;;14.70;99.90;;;;;;5048796;28;19920;-79